createdAt,value
2018-03-29T00:48:10.205Z,80.54
2018-03-29T00:50:43.437Z,80.81
2018-03-29T00:53:35.172Z,81.78
2018-03-29T00:56:09.188Z,82.41
2018-03-29T00:58:42.468Z,83.74
2018-03-29T02:32:22.209Z,86.57
2018-03-29T02:34:55.493Z,86.47
2018-03-29T02:37:28.760Z,86.48
2018-03-29T02:40:02.075Z,86.73
2018-03-29T02:42:36.099Z,86.45
2018-03-29T03:46:35.047Z,86.47
2018-03-29T03:49:08.317Z,86.55
2018-03-29T03:51:41.566Z,86.55
2018-03-29T03:54:14.834Z,86.52
2018-03-29T03:56:48.084Z,86.53
2018-03-29T03:59:21.400Z,86.64
2018-03-29T04:31:10.956Z,86.24
2018-03-29T04:33:44.853Z,86.15
2018-03-29T04:36:18.868Z,86.03
2018-03-29T04:38:52.136Z,85.95
2018-03-29T04:41:26.153Z,86.02
2018-03-29T04:44:00.254Z,86.05
2018-03-29T04:46:33.506Z,86.21
2018-03-29T04:49:06.779Z,86.02
2018-03-29T04:51:40.086Z,86.10
2018-03-29T04:54:14.348Z,85.92
2018-03-29T04:56:47.614Z,85.92
2018-03-29T04:59:20.879Z,85.84
2018-03-29T05:01:54.144Z,85.60
2018-03-29T05:04:27.410Z,85.65
2018-03-29T05:07:00.657Z,85.66
2018-03-29T05:09:33.918Z,85.77
2018-03-29T05:12:07.165Z,85.97
2018-03-29T05:14:40.433Z,85.53
2018-03-29T05:17:13.695Z,85.40
2018-03-29T05:19:46.963Z,85.33
2018-03-29T05:22:20.195Z,85.41
2018-03-29T05:24:54.237Z,85.42
2018-03-29T05:27:27.509Z,85.29
2018-03-29T05:30:00.766Z,85.59
2018-03-29T05:32:34.033Z,85.69
2018-03-29T05:35:07.312Z,85.68
2018-03-29T05:37:40.580Z,85.41
2018-03-29T05:40:13.819Z,85.17
2018-03-29T05:42:47.089Z,85.33
2018-03-29T05:45:20.342Z,85.64
2018-03-29T05:47:53.682Z,85.60
2018-03-29T05:50:26.869Z,85.75
2018-03-29T05:53:00.133Z,85.66
2018-03-29T05:55:33.437Z,85.55
2018-03-29T05:58:07.464Z,85.06
2018-03-29T06:00:40.725Z,84.39
2018-03-29T06:03:14.057Z,84.67
2018-03-29T06:05:47.246Z,84.67
2018-03-29T06:08:20.523Z,84.74
2018-03-29T06:10:53.785Z,84.54
2018-03-29T06:13:27.061Z,84.36
2018-03-29T06:16:04.300Z,84.79
2018-03-29T06:18:38.401Z,84.88
2018-03-29T06:21:12.799Z,84.89
2018-03-29T06:23:46.141Z,84.73
2018-03-29T06:26:20.329Z,84.53
2018-03-29T06:28:54.298Z,84.40
2018-03-29T07:00:57.378Z,80.78
2018-03-29T07:03:31.423Z,81.21
2018-03-29T07:06:04.733Z,79.15
2018-03-29T07:08:38.053Z,78.82
2018-03-29T07:11:12.105Z,77.99
2018-03-29T07:13:45.374Z,77.05
2018-03-29T08:01:50.757Z,67.12
2018-03-29T08:04:24.002Z,66.50
2018-03-29T08:06:57.269Z,64.88
2018-03-29T08:09:30.522Z,67.65
2018-03-29T08:14:43.386Z,65.77
2018-03-29T09:02:50.400Z,62.60
2018-03-29T09:05:23.637Z,62.42
2018-03-29T09:07:56.930Z,62.24
2018-03-29T09:10:30.174Z,62.25
2018-03-29T09:13:03.468Z,61.43
2018-03-29T10:01:10.145Z,57.37
2018-03-29T10:03:48.829Z,57.12
2018-03-29T10:06:27.056Z,56.77
2018-03-29T10:09:00.352Z,56.32
2018-03-29T10:11:33.597Z,56.04
2018-03-29T10:14:06.882Z,55.53
2018-03-29T11:02:13.849Z,53.61
2018-03-29T11:04:47.130Z,53.07
2018-03-29T11:07:20.370Z,52.85
2018-03-29T11:09:54.405Z,52.98
2018-03-29T11:12:27.653Z,52.71
2018-03-29T11:15:00.942Z,52.14
2018-03-29T12:03:07.093Z,47.75
2018-03-29T12:05:40.343Z,47.54
2018-03-29T12:08:14.390Z,47.54
2018-03-29T12:10:47.670Z,46.76
2018-03-29T12:13:20.921Z,47.00
2018-03-29T13:01:28.706Z,44.83
2018-03-29T13:04:02.756Z,45.44
2018-03-29T13:06:36.009Z,45.73
2018-03-29T13:09:10.051Z,46.03
2018-03-29T13:11:43.328Z,45.90
2018-03-29T13:14:16.584Z,45.98
2018-03-29T14:02:23.238Z,45.99
2018-03-29T14:04:56.493Z,45.89
2018-03-29T14:07:30.538Z,45.79
2018-03-29T14:10:03.802Z,45.60
2018-03-29T14:12:37.091Z,45.27
2018-03-29T14:15:10.347Z,44.95
2018-03-29T14:47:00.141Z,46.21
2018-03-29T14:49:33.406Z,46.43
2018-03-29T14:52:06.654Z,46.59
2018-03-29T14:54:39.951Z,46.82
2018-03-29T14:57:13.203Z,46.98
2018-03-29T14:59:47.251Z,47.13
2018-03-29T15:31:37.129Z,47.73
2018-03-29T15:34:10.352Z,47.81
2018-03-29T15:36:44.387Z,48.23
2018-03-29T15:39:17.676Z,48.80
2018-03-29T15:41:50.928Z,49.08
2018-03-29T15:44:24.215Z,48.86
2018-03-29T15:46:57.462Z,48.81
2018-03-29T15:49:30.742Z,48.80
2018-03-29T15:52:04.758Z,48.72
2018-03-29T15:54:38.071Z,48.57
2018-03-29T15:57:11.359Z,48.37
2018-03-29T15:59:44.648Z,48.38
2018-03-29T16:02:17.910Z,48.41
2018-03-29T16:04:51.974Z,48.52
2018-03-29T16:07:25.227Z,48.57
2018-03-29T16:09:59.277Z,48.66
2018-03-29T16:12:32.579Z,48.69
2018-03-29T16:15:05.802Z,48.75
2018-03-29T16:17:39.076Z,48.73
2018-03-29T16:20:12.337Z,48.71
2018-03-29T16:22:45.618Z,48.38
2018-03-29T16:25:18.885Z,48.19
2018-03-29T16:27:52.187Z,48.17
2018-03-29T16:30:25.443Z,48.04
2018-03-29T16:32:59.494Z,47.83
2018-03-29T16:35:32.758Z,47.66
2018-03-29T16:38:06.076Z,47.68
2018-03-29T16:40:39.321Z,47.83
2018-03-29T16:43:12.633Z,48.04
2018-03-29T16:45:45.887Z,48.14
2018-03-29T16:48:19.168Z,48.14
2018-03-29T16:50:52.641Z,48.03
2018-03-29T16:53:25.925Z,48.06
2018-03-29T16:55:59.213Z,48.04
2018-03-29T16:58:32.486Z,48.06
2018-03-29T17:01:05.734Z,48.17
2018-03-29T17:03:39.783Z,48.28
2018-03-29T17:06:13.055Z,48.38
2018-03-29T17:08:47.092Z,48.45
2018-03-29T17:11:20.356Z,48.63
2018-03-29T17:13:54.387Z,48.85
2018-03-29T17:16:27.656Z,49.14
2018-03-29T17:19:01.685Z,49.38
2018-03-29T17:21:34.961Z,49.63
2018-03-29T17:24:08.981Z,49.87
2018-03-29T17:26:42.260Z,50.03
2018-03-29T17:29:16.284Z,50.21
2018-03-29T17:31:49.636Z,50.42
2018-03-29T17:34:23.012Z,50.58
2018-03-29T17:36:56.668Z,50.76
2018-03-29T17:39:30.133Z,50.98
2018-03-29T17:42:03.558Z,51.14
2018-03-29T17:44:37.025Z,51.31
2018-03-29T17:47:10.344Z,51.48
2018-03-29T17:49:43.609Z,51.73
2018-03-29T17:52:16.951Z,51.88
2018-03-29T17:54:51.194Z,52.11
2018-03-29T17:57:24.694Z,52.29
2018-03-29T18:00:00.432Z,52.41
2018-03-29T18:02:33.996Z,52.55
2018-03-29T18:05:07.540Z,52.69
2018-03-29T18:07:41.775Z,52.82
2018-03-29T18:10:16.828Z,53.00
2018-03-29T18:12:50.322Z,53.24
2018-03-29T18:15:23.777Z,53.41
2018-03-29T18:17:58.377Z,54.23
2018-03-29T18:20:31.770Z,54.16
2018-03-29T18:23:05.260Z,54.07
2018-03-29T18:25:38.638Z,54.18
2018-03-29T18:28:13.162Z,54.34
2018-03-29T18:30:47.508Z,54.47
2018-03-29T18:33:22.095Z,54.56
2018-03-29T18:35:55.544Z,54.69
2018-03-29T18:38:28.942Z,54.70
2018-03-29T18:41:05.435Z,54.79
2018-03-29T18:43:39.068Z,54.82
2018-03-29T18:46:12.621Z,54.89
2018-03-29T18:48:46.938Z,54.98
2018-03-29T18:51:21.380Z,55.05
2018-03-29T18:53:55.874Z,55.10
2018-03-29T18:56:29.415Z,55.18
2018-03-29T18:59:03.469Z,55.26
2018-03-29T19:01:37.006Z,55.38
2018-03-29T19:04:10.587Z,55.45
2018-03-29T19:06:44.093Z,55.53
2018-03-29T19:09:18.460Z,55.64
2018-03-29T19:11:51.936Z,55.72
2018-03-29T19:14:25.615Z,55.81
2018-03-29T19:16:59.808Z,55.94
2018-03-29T19:19:33.374Z,55.98
2018-03-29T19:22:06.826Z,56.03
2018-03-29T19:24:40.444Z,56.17
2018-03-29T19:27:26.960Z,56.25
2018-03-29T19:30:00.296Z,56.32
2018-03-29T19:32:33.713Z,56.77
2018-03-29T19:35:07.889Z,56.55
2018-03-29T19:37:41.279Z,56.47
2018-03-29T19:40:14.677Z,56.53
2018-03-29T19:42:48.980Z,56.59
2018-03-29T19:45:22.844Z,56.66
2018-03-29T19:47:56.106Z,56.74
2018-03-29T19:50:29.422Z,56.84
2018-03-29T19:53:02.669Z,56.93
2018-03-29T19:55:35.988Z,57.52
2018-03-29T19:58:09.234Z,57.24
2018-03-29T20:00:42.568Z,57.26
2018-03-29T20:03:15.816Z,57.74
2018-03-29T20:05:49.107Z,57.55
2018-03-29T20:08:22.353Z,57.59
2018-03-29T20:10:55.748Z,57.68
2018-03-29T20:13:28.994Z,57.76
2018-03-29T20:16:02.330Z,57.85
2018-03-29T20:18:35.583Z,57.96
2018-03-29T20:21:09.414Z,58.03
2018-03-29T20:23:42.662Z,58.10
2018-03-29T20:26:15.950Z,58.20
2018-03-29T20:28:49.256Z,58.29
2018-03-29T20:31:23.268Z,58.46
2018-03-29T20:33:56.543Z,58.63
2018-03-29T20:36:29.839Z,58.63
2018-03-29T20:39:03.097Z,58.68
2018-03-29T20:41:37.152Z,58.75
2018-03-29T20:44:11.197Z,58.85
2018-03-29T20:46:44.493Z,58.88
2018-03-29T20:49:18.519Z,58.97
2018-03-29T20:51:51.797Z,59.14
2018-03-29T20:54:25.062Z,59.31
2018-03-29T20:56:58.431Z,59.41
2018-03-29T20:59:31.821Z,59.38
2018-03-29T21:02:05.134Z,59.42
2018-03-29T21:04:38.501Z,59.53
2018-03-29T21:07:11.811Z,59.66
2018-03-29T21:09:45.056Z,59.75
2018-03-29T21:12:18.438Z,59.79
2018-03-29T21:14:51.689Z,59.89
2018-03-29T21:17:25.074Z,59.99
2018-03-29T21:19:58.329Z,60.09
2018-03-29T21:22:31.614Z,60.16
2018-03-29T21:25:04.867Z,60.22
2018-03-29T21:27:38.160Z,60.33
2018-03-29T21:30:11.406Z,60.37
2018-03-29T21:32:44.717Z,60.41
2018-03-29T21:35:17.982Z,60.50
2018-03-29T21:37:51.321Z,60.61
2018-03-29T21:40:25.381Z,60.71
2018-03-29T21:42:58.633Z,60.72
2018-03-29T21:45:32.641Z,61.11
2018-03-29T21:48:06.690Z,60.96
2018-03-29T21:50:39.942Z,61.00
2018-03-29T21:53:13.224Z,61.10
2018-03-29T21:55:47.232Z,61.19
2018-03-29T21:58:21.282Z,61.24
2018-03-29T22:00:54.535Z,61.29
2018-03-29T22:03:27.906Z,61.34
2018-03-29T22:06:01.156Z,61.35
2018-03-29T22:08:34.446Z,61.34
2018-03-29T22:11:07.694Z,61.37
2018-03-29T22:13:50.703Z,61.40
2018-03-29T22:16:23.954Z,61.42
2018-03-29T22:18:57.246Z,61.41
2018-03-29T22:21:31.263Z,61.39
2018-03-29T22:24:04.650Z,61.44
2018-03-29T22:26:38.647Z,61.43
2018-03-29T22:29:12.697Z,61.48
2018-03-29T22:31:45.943Z,61.50
2018-03-29T22:34:19.327Z,61.55
2018-03-29T22:36:52.606Z,61.60
2018-03-29T22:39:25.873Z,61.65
2018-03-29T22:41:59.132Z,61.66
2018-03-29T22:44:32.414Z,61.67
2018-03-29T22:47:05.658Z,61.72
2018-03-29T22:49:39.043Z,61.72
2018-03-29T22:52:12.293Z,61.73
2018-03-29T22:54:45.578Z,61.78
2018-03-29T22:57:18.825Z,61.75
2018-03-29T22:59:52.114Z,61.81
2018-03-29T23:02:25.357Z,61.83
2018-03-29T23:04:58.650Z,61.88
2018-03-29T23:07:31.911Z,62.04
2018-03-29T23:10:05.281Z,62.13
2018-03-29T23:12:38.521Z,62.24
